Time;durP1;ratioP1;P1;durP2;ratioP2;P2;SDS_P1;SDS_P2;PMS_P1;PMS_P2;Temp;Humidity;BMP_temperature;BMP_pressure;BME280_temperature;BME280_humidity;BME280_pressure;Samples;Min_cycle;Max_cycle;Signal;HPM_P1;HPM_P2
2023/01/18 00:00:31;;;;;;;;;;;;;;;;;;5034403;28;19917;-62
2023/01/18 00:02:59;;;;;;;;;;;;;;;;;;5031247;28;19960;-61
2023/01/18 00:05:27;;;;;;;;;;;;;;;;;;5033292;28;20027;-61
2023/01/18 00:07:53;;;;;;;;;;;;;;;;;;5021495;28;19917;-61
2023/01/18 00:10:18;;;;;;;;;;;;;;;;;;5034768;28;20467;-62
2023/01/18 00:12:46;;;;;;;;;;;;;;;;;;5030244;28;19928;-61
2023/01/18 00:15:12;;;;;;;;;;;;;;;;;;5043665;28;20155;-61
2023/01/18 00:17:46;;;;;;;;;;;;;;;;;;5023364;28;20357;-61
2023/01/18 00:20:11;;;;;;;;;;;;;;;;;;5048682;28;20401;-61
2023/01/18 00:22:39;;;;;;;;;;;;;;;;;;5047638;28;19952;-62
2023/01/18 00:25:09;;;;;;;;;;;;;;;;;;5037253;28;19982;-61
2023/01/18 00:27:35;;;;;;;;;;;;;;;;;;5038616;28;20322;-62
2023/01/18 00:30:03;;;;;;;;;;;;;;;;;;5031289;28;20030;-61
2023/01/18 00:32:28;;;;;;;;;;;;;;;;;;5031751;28;20242;-61
2023/01/18 00:34:54;;;;;;;;;;;;;;;;;;5035286;28;20354;-61
2023/01/18 00:37:21;;;;;;;;;;;;;;;;;;5033073;28;19942;-61
2023/01/18 00:39:47;;;;;;;;;;;;;;;;;;5037092;28;19921;-62
2023/01/18 00:44:56;;;;;;;;;;;;;;;;;;5032356;28;19924;-62
2023/01/18 00:47:26;;;;;;;;;;;;;;;;;;5022870;28;19968;-63
2023/01/18 00:49:51;;;;;;;;;;;;;;;;;;5037509;28;20589;-61
2023/01/18 00:52:17;;;;;;;;;;;;;;;;;;5032714;28;19928;-62
2023/01/18 00:54:42;;;;;;;;;;;;;;;;;;5031372;28;19920;-62
2023/01/18 00:57:12;;;;;;;;;;;;;;;;;;5032146;28;19923;-61
2023/01/18 00:59:38;;;;;;;;;;;;;;;;;;5047342;28;19916;-62
2023/01/18 01:02:03;;;;;;;;;;;;;;;;;;5027936;28;19920;-62
2023/01/18 01:07:32;;;;;;;;;;;;;;;;;;4937278;28;19951;-62
2023/01/18 01:09:57;;;;;;;;;;;;;;;;;;5011797;28;20280;-63
2023/01/18 01:26:09;;;;;;;;;;;;;;;;;;5031137;28;20070;-62
2023/01/18 01:28:35;;;;;;;;;;;;;;;;;;5029449;28;19928;-61
2023/01/18 01:31:00;;;;;;;;;;;;;;;;;;5033233;28;19921;-60
2023/01/18 01:33:25;;;;;;;;;;;;;;;;;;5032408;28;19948;-62
2023/01/18 01:35:53;;;;;;;;;;;;;;;;;;5047680;28;20034;-62
2023/01/18 01:38:18;;;;;;;;;;;;;;;;;;5031196;28;19971;-61
2023/01/18 01:44:03;;;;;;;;;;;;;;;;;;5031673;28;20698;-61
2023/01/18 01:46:29;;;;;;;;;;;;;;;;;;5032925;28;20062;-61
2023/01/18 01:48:55;;;;;;;;;;;;;;;;;;5021739;28;20679;-61
2023/01/18 01:51:23;;;;;;;;;;;;;;;;;;5031503;28;19923;-61
2023/01/18 01:53:48;;;;;;;;;;;;;;;;;;5036033;28;19920;-61
2023/01/18 01:56:14;;;;;;;;;;;;;;;;;;5032549;28;19928;-60
2023/01/18 01:58:39;;;;;;;;;;;;;;;;;;5037672;28;19920;-61
2023/01/18 02:01:04;;;;;;;;;;;;;;;;;;5045863;28;19993;-61
2023/01/18 02:03:32;;;;;;;;;;;;;;;;;;5019388;28;19928;-60
2023/01/18 02:05:58;;;;;;;;;;;;;;;;;;5030981;28;20007;-61
2023/01/18 02:08:25;;;;;;;;;;;;;;;;;;5033702;28;19928;-61
2023/01/18 02:10:54;;;;;;;;;;;;;;;;;;5031793;28;19916;-61
2023/01/18 02:13:19;;;;;;;;;;;;;;;;;;5041595;28;19921;-61
2023/01/18 02:15:47;;;;;;;;;;;;;;;;;;5029873;28;20417;-62
2023/01/18 02:18:12;;;;;;;;;;;;;;;;;;5040992;28;20015;-61
2023/01/18 02:20:40;;;;;;;;;;;;;;;;;;5050555;28;19920;-61
2023/01/18 02:23:08;;;;;;;;;;;;;;;;;;5032445;28;19928;-62
2023/01/18 02:25:36;;;;;;;;;;;;;;;;;;5033527;28;19932;-61
2023/01/18 02:28:01;;;;;;;;;;;;;;;;;;5033441;28;19934;-61
2023/01/18 02:30:27;;;;;;;;;;;;;;;;;;5035498;28;19963;-61
2023/01/18 02:32:55;;;;;;;;;;;;;;;;;;5040350;28;19928;-62
2023/01/18 02:38:36;;;;;;;;;;;;;;;;;;5033506;28;20012;-62
2023/01/18 02:41:02;;;;;;;;;;;;;;;;;;5038425;28;19980;-62
2023/01/18 02:46:29;;;;;;;;;;;;;;;;;;5031506;28;19921;-61
2023/01/18 02:48:55;;;;;;;;;;;;;;;;;;5036760;28;19980;-62
2023/01/18 02:51:25;;;;;;;;;;;;;;;;;;5048305;28;20739;-62
2023/01/18 02:53:55;;;;;;;;;;;;;;;;;;5033554;28;19947;-61
2023/01/18 02:56:23;;;;;;;;;;;;;;;;;;5038433;28;19924;-62
2023/01/18 02:58:49;;;;;;;;;;;;;;;;;;5038606;28;20011;-62
2023/01/18 03:01:15;;;;;;;;;;;;;;;;;;5023068;28;19931;-62
2023/01/18 03:03:40;;;;;;;;;;;;;;;;;;5033354;28;19920;-63
2023/01/18 03:06:05;;;;;;;;;;;;;;;;;;5040079;28;19921;-62
2023/01/18 03:08:31;;;;;;;;;;;;;;;;;;5022373;28;19923;-62
2023/01/18 03:10:56;;;;;;;;;;;;;;;;;;5020984;28;20016;-62
2023/01/18 03:13:24;;;;;;;;;;;;;;;;;;5031725;28;19920;-62
2023/01/18 03:15:54;;;;;;;;;;;;;;;;;;5034218;28;20453;-62
2023/01/18 03:18:20;;;;;;;;;;;;;;;;;;5040102;28;20399;-61
2023/01/18 03:20:47;;;;;;;;;;;;;;;;;;5030419;28;19921;-61
2023/01/18 03:26:00;;;;;;;;;;;;;;;;;;5048616;28;19928;-63
2023/01/18 03:34:02;;;;;;;;;;;;;;;;;;5033406;28;19943;-61
2023/01/18 03:36:27;;;;;;;;;;;;;;;;;;5040406;28;20560;-62
2023/01/18 03:38:52;;;;;;;;;;;;;;;;;;5030978;28;19921;-62
2023/01/18 03:41:20;;;;;;;;;;;;;;;;;;5031487;28;19918;-62
2023/01/18 03:43:45;;;;;;;;;;;;;;;;;;5035081;28;19920;-62
2023/01/18 03:46:13;;;;;;;;;;;;;;;;;;5046104;28;19927;-61
2023/01/18 03:48:38;;;;;;;;;;;;;;;;;;5033565;28;19917;-61
2023/01/18 03:51:08;;;;;;;;;;;;;;;;;;5033062;28;20302;-60
2023/01/18 03:53:37;;;;;;;;;;;;;;;;;;5039752;28;19916;-61
2023/01/18 03:56:05;;;;;;;;;;;;;;;;;;5020579;28;20587;-61
2023/01/18 03:58:33;;;;;;;;;;;;;;;;;;5033365;28;19916;-61
2023/01/18 04:01:02;;;;;;;;;;;;;;;;;;5047257;28;20083;-61
2023/01/18 04:03:32;;;;;;;;;;;;;;;;;;5031033;28;19943;-61
2023/01/18 04:05:58;;;;;;;;;;;;;;;;;;5029982;28;20055;-61
2023/01/18 04:08:28;;;;;;;;;;;;;;;;;;5033601;28;20357;-61
2023/01/18 04:10:57;;;;;;;;;;;;;;;;;;5032656;28;20539;-62
2023/01/18 04:13:24;;;;;;;;;;;;;;;;;;5031783;28;19974;-62
2023/01/18 04:15:49;;;;;;;;;;;;;;;;;;5019456;28;21792;-62
2023/01/18 04:18:15;;;;;;;;;;;;;;;;;;5019057;28;20330;-61
2023/01/18 04:20:40;;;;;;;;;;;;;;;;;;5034177;28;20257;-61
2023/01/18 04:23:07;;;;;;;;;;;;;;;;;;5047723;28;20110;-61
2023/01/18 04:25:33;;;;;;;;;;;;;;;;;;5034534;28;19932;-61
2023/01/18 04:27:58;;;;;;;;;;;;;;;;;;5015055;28;19982;-61
2023/01/18 04:30:23;;;;;;;;;;;;;;;;;;5038525;28;19995;-62
2023/01/18 04:32:51;;;;;;;;;;;;;;;;;;5020778;28;19942;-62
2023/01/18 04:35:21;;;;;;;;;;;;;;;;;;5039471;28;20053;-62
2023/01/18 04:37:46;;;;;;;;;;;;;;;;;;5032071;28;19920;-62
2023/01/18 04:40:15;;;;;;;;;;;;;;;;;;5031413;28;20395;-62
2023/01/18 04:42:40;;;;;;;;;;;;;;;;;;5034569;28;19917;-62
2023/01/18 04:45:09;;;;;;;;;;;;;;;;;;5021476;28;20817;-61
2023/01/18 04:47:37;;;;;;;;;;;;;;;;;;5031452;28;20027;-62
2023/01/18 04:50:02;;;;;;;;;;;;;;;;;;5031825;28;20007;-62
2023/01/18 04:52:31;;;;;;;;;;;;;;;;;;5028815;28;20370;-62
2023/01/18 04:54:58;;;;;;;;;;;;;;;;;;5046716;28;19977;-62
2023/01/18 04:57:26;;;;;;;;;;;;;;;;;;5037148;28;20008;-63
2023/01/18 04:59:53;;;;;;;;;;;;;;;;;;5031870;28;20705;-62
2023/01/18 05:02:19;;;;;;;;;;;;;;;;;;5031404;28;19920;-62
2023/01/18 05:04:47;;;;;;;;;;;;;;;;;;5031339;28;19963;-62
2023/01/18 05:07:12;;;;;;;;;;;;;;;;;;5037700;28;20235;-62
2023/01/18 05:09:40;;;;;;;;;;;;;;;;;;5029250;28;19931;-62
2023/01/18 05:12:11;;;;;;;;;;;;;;;;;;5034298;28;19921;-62
2023/01/18 05:14:36;;;;;;;;;;;;;;;;;;5037110;28;20418;-62
2023/01/18 05:17:02;;;;;;;;;;;;;;;;;;5034912;28;19928;-62
2023/01/18 05:19:29;;;;;;;;;;;;;;;;;;5030656;28;19966;-61
2023/01/18 05:21:57;;;;;;;;;;;;;;;;;;5045804;28;20423;-62
2023/01/18 05:24:25;;;;;;;;;;;;;;;;;;5031685;28;20013;-63
2023/01/18 05:26:50;;;;;;;;;;;;;;;;;;5031132;28;20398;-61
2023/01/18 05:29:18;;;;;;;;;;;;;;;;;;5032021;28;19960;-61
2023/01/18 05:31:44;;;;;;;;;;;;;;;;;;5030844;28;20008;-61
2023/01/18 05:34:09;;;;;;;;;;;;;;;;;;5019030;28;19924;-62
2023/01/18 05:36:37;;;;;;;;;;;;;;;;;;5031362;28;19932;-62
2023/01/18 05:39:03;;;;;;;;;;;;;;;;;;5032890;28;19927;-61
2023/01/18 05:41:30;;;;;;;;;;;;;;;;;;5028298;28;19947;-62
2023/01/18 05:44:00;;;;;;;;;;;;;;;;;;5038108;28;19931;-63
2023/01/18 05:46:26;;;;;;;;;;;;;;;;;;5029166;28;20379;-62
2023/01/18 05:48:54;;;;;;;;;;;;;;;;;;5035519;28;19997;-62
2023/01/18 05:51:24;;;;;;;;;;;;;;;;;;5034728;28;20410;-62
2023/01/18 05:53:52;;;;;;;;;;;;;;;;;;5041984;28;19962;-62
2023/01/18 05:56:17;;;;;;;;;;;;;;;;;;5032259;28;19929;-62
2023/01/18 05:58:43;;;;;;;;;;;;;;;;;;5032340;28;19921;-62
2023/01/18 06:01:08;;;;;;;;;;;;;;;;;;5030584;28;19931;-61
2023/01/18 06:03:36;;;;;;;;;;;;;;;;;;5039129;28;19920;-62
2023/01/18 06:06:01;;;;;;;;;;;;;;;;;;5039732;28;20813;-62
2023/01/18 06:08:31;;;;;;;;;;;;;;;;;;5036530;28;19963;-62
2023/01/18 06:10:56;;;;;;;;;;;;;;;;;;5033552;28;19923;-62
2023/01/18 06:13:26;;;;;;;;;;;;;;;;;;5049826;28;19916;-63
2023/01/18 06:15:53;;;;;;;;;;;;;;;;;;5034854;28;20746;-62
2023/01/18 06:18:21;;;;;;;;;;;;;;;;;;5048918;28;20411;-62
2023/01/18 06:20:48;;;;;;;;;;;;;;;;;;5038103;28;19927;-63
2023/01/18 06:23:14;;;;;;;;;;;;;;;;;;5033451;28;20015;-64
2023/01/18 06:25:40;;;;;;;;;;;;;;;;;;5032038;28;20386;-61
2023/01/18 06:28:10;;;;;;;;;;;;;;;;;;5032855;28;19927;-61
2023/01/18 06:30:38;;;;;;;;;;;;;;;;;;5039726;28;20318;-61
2023/01/18 06:33:08;;;;;;;;;;;;;;;;;;5049098;28;19962;-60
2023/01/18 06:35:34;;;;;;;;;;;;;;;;;;5035483;28;20214;-61
2023/01/18 06:37:59;;;;;;;;;;;;;;;;;;5022073;28;19924;-61
2023/01/18 06:40:27;;;;;;;;;;;;;;;;;;5037257;28;20024;-61
2023/01/18 06:42:55;;;;;;;;;;;;;;;;;;5035873;28;19925;-62
2023/01/18 06:45:24;;;;;;;;;;;;;;;;;;5032463;28;19928;-62
2023/01/18 06:47:49;;;;;;;;;;;;;;;;;;5029257;28;20293;-63
2023/01/18 06:50:15;;;;;;;;;;;;;;;;;;5032935;28;19920;-62
2023/01/18 06:52:41;;;;;;;;;;;;;;;;;;5023611;28;19921;-62
2023/01/18 06:55:06;;;;;;;;;;;;;;;;;;5048984;28;20380;-61
2023/01/18 06:57:32;;;;;;;;;;;;;;;;;;5030711;28;19920;-61
2023/01/18 07:00:00;;;;;;;;;;;;;;;;;;5019811;28;19928;-61
2023/01/18 07:02:27;;;;;;;;;;;;;;;;;;5032919;28;20770;-62
2023/01/18 07:04:53;;;;;;;;;;;;;;;;;;5036914;28;19920;-62
2023/01/18 07:07:21;;;;;;;;;;;;;;;;;;5039409;28;20347;-63
2023/01/18 07:09:46;;;;;;;;;;;;;;;;;;5043315;28;20421;-62
2023/01/18 07:12:12;;;;;;;;;;;;;;;;;;5032471;28;20480;-62
2023/01/18 07:14:40;;;;;;;;;;;;;;;;;;5031264;28;20304;-60
2023/01/18 07:17:07;;;;;;;;;;;;;;;;;;5030879;28;19921;-61
2023/01/18 07:19:33;;;;;;;;;;;;;;;;;;5031613;28;19947;-61
2023/01/18 07:22:00;;;;;;;;;;;;;;;;;;5040340;28;19933;-61
2023/01/18 07:24:26;;;;;;;;;;;;;;;;;;5036807;28;20046;-62
2023/01/18 07:26:51;;;;;;;;;;;;;;;;;;5030687;28;19923;-62
2023/01/18 07:29:16;;;;;;;;;;;;;;;;;;5036331;28;20055;-62
2023/01/18 07:31:42;;;;;;;;;;;;;;;;;;5032683;28;20767;-63
2023/01/18 07:34:09;;;;;;;;;;;;;;;;;;5033620;28;19917;-61
2023/01/18 07:36:38;;;;;;;;;;;;;;;;;;5034084;28;19920;-62
2023/01/18 07:39:05;;;;;;;;;;;;;;;;;;5033230;28;20096;-61
2023/01/18 07:41:31;;;;;;;;;;;;;;;;;;5035255;28;19990;-62
2023/01/18 07:43:56;;;;;;;;;;;;;;;;;;5021996;28;20035;-62
2023/01/18 07:46:24;;;;;;;;;;;;;;;;;;5030867;28;19931;-61
2023/01/18 07:48:53;;;;;;;;;;;;;;;;;;5032575;28;19935;-62
2023/01/18 07:51:21;;;;;;;;;;;;;;;;;;5033369;28;19927;-62
2023/01/18 07:53:46;;;;;;;;;;;;;;;;;;5029277;28;20063;-62
2023/01/18 07:56:12;;;;;;;;;;;;;;;;;;5032766;28;20009;-62
2023/01/18 07:58:38;;;;;;;;;;;;;;;;;;5036393;28;20293;-62
2023/01/18 08:01:04;;;;;;;;;;;;;;;;;;5030967;28;19952;-62
2023/01/18 08:03:32;;;;;;;;;;;;;;;;;;5036127;28;20048;-61
2023/01/18 08:06:00;;;;;;;;;;;;;;;;;;5031853;28;19931;-62
2023/01/18 08:08:31;;;;;;;;;;;;;;;;;;5022728;28;20600;-61
2023/01/18 08:10:56;;;;;;;;;;;;;;;;;;5030477;28;19927;-62
2023/01/18 08:13:24;;;;;;;;;;;;;;;;;;5033708;28;19974;-62
2023/01/18 08:15:52;;;;;;;;;;;;;;;;;;5032577;28;20282;-61
2023/01/18 08:18:17;;;;;;;;;;;;;;;;;;5047915;28;20327;-61
2023/01/18 08:20:46;;;;;;;;;;;;;;;;;;5035289;28;20298;-61
2023/01/18 08:23:11;;;;;;;;;;;;;;;;;;5033579;28;19968;-61
2023/01/18 08:25:36;;;;;;;;;;;;;;;;;;5021008;28;20136;-62
2023/01/18 08:28:04;;;;;;;;;;;;;;;;;;5030394;28;19928;-61
2023/01/18 08:30:30;;;;;;;;;;;;;;;;;;5032468;28;19920;-62
2023/01/18 08:32:56;;;;;;;;;;;;;;;;;;5037869;28;19920;-62
2023/01/18 08:35:21;;;;;;;;;;;;;;;;;;5032182;28;19917;-61
2023/01/18 08:37:47;;;;;;;;;;;;;;;;;;5031555;28;20300;-61
2023/01/18 08:40:14;;;;;;;;;;;;;;;;;;5015962;28;20209;-62
2023/01/18 08:42:42;;;;;;;;;;;;;;;;;;5017071;28;20418;-62
2023/01/18 08:45:08;;;;;;;;;;;;;;;;;;5038044;28;19921;-61
2023/01/18 08:47:36;;;;;;;;;;;;;;;;;;5038138;28;19960;-61
2023/01/18 08:50:01;;;;;;;;;;;;;;;;;;5029762;28;19920;-61
2023/01/18 08:52:29;;;;;;;;;;;;;;;;;;5030597;28;19966;-61
2023/01/18 08:55:00;;;;;;;;;;;;;;;;;;5035553;28;19927;-62
2023/01/18 08:57:28;;;;;;;;;;;;;;;;;;5036947;28;20122;-62
2023/01/18 08:59:56;;;;;;;;;;;;;;;;;;5044634;28;20948;-61
2023/01/18 09:02:21;;;;;;;;;;;;;;;;;;5032558;28;20495;-61
2023/01/18 09:04:47;;;;;;;;;;;;;;;;;;5031828;28;19928;-61
2023/01/18 09:07:12;;;;;;;;;;;;;;;;;;5045889;28;20273;-62
2023/01/18 09:09:38;;;;;;;;;;;;;;;;;;5020899;28;19916;-61
2023/01/18 09:12:05;;;;;;;;;;;;;;;;;;5041657;28;20393;-61
2023/01/18 09:14:33;;;;;;;;;;;;;;;;;;5016261;28;19920;-62
2023/01/18 09:17:00;;;;;;;;;;;;;;;;;;5017872;28;20505;-61
2023/01/18 09:19:29;;;;;;;;;;;;;;;;;;5017139;28;20460;-61
2023/01/18 09:21:59;;;;;;;;;;;;;;;;;;5015546;28;19992;-61
2023/01/18 09:24:25;;;;;;;;;;;;;;;;;;5044320;28;19933;-61
2023/01/18 09:26:52;;;;;;;;;;;;;;;;;;5029470;28;20003;-61
2023/01/18 09:29:18;;;;;;;;;;;;;;;;;;5031245;28;20349;-62
2023/01/18 09:31:47;;;;;;;;;;;;;;;;;;5036663;28;20371;-61
2023/01/18 09:34:17;;;;;;;;;;;;;;;;;;5019891;28;20067;-61
2023/01/18 09:36:44;;;;;;;;;;;;;;;;;;5033944;28;20047;-61
2023/01/18 09:39:12;;;;;;;;;;;;;;;;;;5019385;28;19958;-61
2023/01/18 09:41:37;;;;;;;;;;;;;;;;;;5027708;28;19925;-61
2023/01/18 09:44:05;;;;;;;;;;;;;;;;;;5030787;28;19920;-61
2023/01/18 09:46:34;;;;;;;;;;;;;;;;;;5031290;28;20379;-61
2023/01/18 09:49:02;;;;;;;;;;;;;;;;;;5046486;28;20015;-61
2023/01/18 09:51:30;;;;;;;;;;;;;;;;;;5035140;28;20047;-61
2023/01/18 09:54:00;;;;;;;;;;;;;;;;;;5031314;28;19927;-61
2023/01/18 09:56:29;;;;;;;;;;;;;;;;;;5034598;28;19921;-60
2023/01/18 09:59:00;;;;;;;;;;;;;;;;;;5031332;28;19921;-61
2023/01/18 10:01:28;;;;;;;;;;;;;;;;;;5033950;28;19916;-61
2023/01/18 10:03:53;;;;;;;;;;;;;;;;;;5031362;28;20479;-62
2023/01/18 10:06:18;;;;;;;;;;;;;;;;;;5020126;28;19921;-61
2023/01/18 10:08:43;;;;;;;;;;;;;;;;;;5034563;28;20086;-62
2023/01/18 10:11:09;;;;;;;;;;;;;;;;;;5030352;28;20773;-61
2023/01/18 10:13:37;;;;;;;;;;;;;;;;;;5033691;28;20032;-61
2023/01/18 10:16:03;;;;;;;;;;;;;;;;;;5044783;28;20169;-61
2023/01/18 10:18:28;;;;;;;;;;;;;;;;;;5019337;28;20009;-61
2023/01/18 10:20:55;;;;;;;;;;;;;;;;;;5028407;28;20814;-61
2023/01/18 10:23:20;;;;;;;;;;;;;;;;;;5026882;28;19956;-61
2023/01/18 10:25:45;;;;;;;;;;;;;;;;;;5030375;28;19924;-61
2023/01/18 10:28:11;;;;;;;;;;;;;;;;;;5028668;28;19921;-62
2023/01/18 10:30:36;;;;;;;;;;;;;;;;;;5035313;28;19932;-61
2023/01/18 10:33:02;;;;;;;;;;;;;;;;;;5033501;28;20038;-61
2023/01/18 10:35:27;;;;;;;;;;;;;;;;;;5032171;28;19925;-62
2023/01/18 10:37:55;;;;;;;;;;;;;;;;;;5034120;28;21391;-61
2023/01/18 10:40:23;;;;;;;;;;;;;;;;;;5031247;28;19932;-61
2023/01/18 10:42:49;;;;;;;;;;;;;;;;;;5037189;28;19921;-61
2023/01/18 10:45:20;;;;;;;;;;;;;;;;;;5035560;28;19932;-61
2023/01/18 10:47:46;;;;;;;;;;;;;;;;;;5039355;28;19971;-61
2023/01/18 10:50:11;;;;;;;;;;;;;;;;;;5037974;28;20007;-62
2023/01/18 10:52:40;;;;;;;;;;;;;;;;;;5049346;28;20292;-61
2023/01/18 10:55:10;;;;;;;;;;;;;;;;;;5046959;28;19921;-61
2023/01/18 10:57:36;;;;;;;;;;;;;;;;;;5035856;28;20369;-62
2023/01/18 11:00:01;;;;;;;;;;;;;;;;;;5031041;28;19916;-62
2023/01/18 11:02:29;;;;;;;;;;;;;;;;;;5018892;28;19920;-62
2023/01/18 11:04:57;;;;;;;;;;;;;;;;;;5050503;28;19998;-61
2023/01/18 11:07:22;;;;;;;;;;;;;;;;;;5049344;28;21538;-63
2023/01/18 11:09:48;;;;;;;;;;;;;;;;;;5022189;28;19920;-61
2023/01/18 11:15:00;;;;;;;;;;;;;;;;;;5033819;28;20576;-61
2023/01/18 11:17:25;;;;;;;;;;;;;;;;;;5034634;28;19927;-61
2023/01/18 11:19:51;;;;;;;;;;;;;;;;;;5033946;28;19921;-61
2023/01/18 11:22:17;;;;;;;;;;;;;;;;;;5033446;28;19921;-62
2023/01/18 11:24:42;;;;;;;;;;;;;;;;;;5039004;28;19924;-62
2023/01/18 11:27:09;;;;;;;;;;;;;;;;;;5038922;28;19939;-63
2023/01/18 11:29:38;;;;;;;;;;;;;;;;;;5030955;28;19920;-63
2023/01/18 11:32:04;;;;;;;;;;;;;;;;;;5031840;28;20540;-63
2023/01/18 11:34:32;;;;;;;;;;;;;;;;;;5040027;28;19920;-63
2023/01/18 11:36:59;;;;;;;;;;;;;;;;;;5033292;28;19921;-62
2023/01/18 11:39:27;;;;;;;;;;;;;;;;;;5033548;28;19916;-61
2023/01/18 11:41:52;;;;;;;;;;;;;;;;;;5037488;28;20020;-64
2023/01/18 11:44:18;;;;;;;;;;;;;;;;;;5031846;28;19954;-63
2023/01/18 11:46:45;;;;;;;;;;;;;;;;;;5031797;28;20529;-64
2023/01/18 11:49:10;;;;;;;;;;;;;;;;;;5041357;28;19920;-63
2023/01/18 11:51:37;;;;;;;;;;;;;;;;;;5034788;28;20023;-62
2023/01/18 11:54:03;;;;;;;;;;;;;;;;;;5046255;28;19921;-62
2023/01/18 11:56:30;;;;;;;;;;;;;;;;;;5020614;28;19916;-61
2023/01/18 11:58:56;;;;;;;;;;;;;;;;;;5030128;28;19916;-64
2023/01/18 12:01:24;;;;;;;;;;;;;;;;;;5034879;28;19951;-61
2023/01/18 12:03:50;;;;;;;;;;;;;;;;;;5033662;28;20595;-63
2023/01/18 12:06:16;;;;;;;;;;;;;;;;;;5031821;28;19920;-61
2023/01/18 12:08:42;;;;;;;;;;;;;;;;;;5032547;28;19927;-63
2023/01/18 12:11:09;;;;;;;;;;;;;;;;;;5028525;28;19979;-63
2023/01/18 12:13:35;;;;;;;;;;;;;;;;;;5032941;28;19924;-63
2023/01/18 12:16:00;;;;;;;;;;;;;;;;;;5028817;28;20384;-62
2023/01/18 12:18:26;;;;;;;;;;;;;;;;;;5032385;28;19916;-62
2023/01/18 12:20:57;;;;;;;;;;;;;;;;;;5031343;28;20527;-61
2023/01/18 12:23:22;;;;;;;;;;;;;;;;;;5032474;28;20405;-61
2023/01/18 12:25:48;;;;;;;;;;;;;;;;;;5032199;28;19924;-63
2023/01/18 12:28:14;;;;;;;;;;;;;;;;;;5033315;28;19925;-66
2023/01/18 12:30:39;;;;;;;;;;;;;;;;;;5029145;28;20511;-62
2023/01/18 12:33:07;;;;;;;;;;;;;;;;;;5033929;28;20348;-62
2023/01/18 12:35:33;;;;;;;;;;;;;;;;;;5031261;28;20092;-63
2023/01/18 12:38:00;;;;;;;;;;;;;;;;;;5030145;28;19916;-63
2023/01/18 12:40:27;;;;;;;;;;;;;;;;;;5029927;28;19916;-64
2023/01/18 12:42:54;;;;;;;;;;;;;;;;;;5024419;28;20391;-62
2023/01/18 12:45:21;;;;;;;;;;;;;;;;;;5046781;28;19932;-62
2023/01/18 12:47:47;;;;;;;;;;;;;;;;;;5029942;28;19921;-62
2023/01/18 12:50:17;;;;;;;;;;;;;;;;;;5028085;28;20006;-61
2023/01/18 12:52:43;;;;;;;;;;;;;;;;;;5017478;28;19920;-62
2023/01/18 12:55:08;;;;;;;;;;;;;;;;;;5034550;28;20359;-63
2023/01/18 12:57:34;;;;;;;;;;;;;;;;;;5029565;28;19920;-61
2023/01/18 13:00:02;;;;;;;;;;;;;;;;;;5028731;28;20184;-63
2023/01/18 13:02:27;;;;;;;;;;;;;;;;;;5032296;28;19917;-62
2023/01/18 13:04:53;;;;;;;;;;;;;;;;;;5034099;28;19930;-63
2023/01/18 13:07:21;;;;;;;;;;;;;;;;;;5032855;28;19917;-62
2023/01/18 13:09:46;;;;;;;;;;;;;;;;;;5031913;28;19970;-62
2023/01/18 13:12:11;;;;;;;;;;;;;;;;;;5028142;28;19925;-63
2023/01/18 13:14:37;;;;;;;;;;;;;;;;;;5036987;28;19969;-62
2023/01/18 13:17:05;;;;;;;;;;;;;;;;;;5031942;28;20409;-62
2023/01/18 13:19:30;;;;;;;;;;;;;;;;;;5031974;28;19920;-63
2023/01/18 13:21:58;;;;;;;;;;;;;;;;;;5040499;28;19972;-62
2023/01/18 13:24:24;;;;;;;;;;;;;;;;;;5033110;28;19928;-63
2023/01/18 13:26:54;;;;;;;;;;;;;;;;;;5036878;28;20342;-62
2023/01/18 13:29:19;;;;;;;;;;;;;;;;;;5030820;28;20351;-63
2023/01/18 13:31:44;;;;;;;;;;;;;;;;;;5017233;28;19925;-63
2023/01/18 13:34:10;;;;;;;;;;;;;;;;;;5033202;28;20229;-62
2023/01/18 13:36:38;;;;;;;;;;;;;;;;;;5047126;28;19932;-62
2023/01/18 13:39:05;;;;;;;;;;;;;;;;;;5029928;28;20446;-62
2023/01/18 13:41:33;;;;;;;;;;;;;;;;;;5022780;28;20013;-62
2023/01/18 13:44:00;;;;;;;;;;;;;;;;;;5030076;28;19920;-63
2023/01/18 13:46:25;;;;;;;;;;;;;;;;;;5036083;28;19921;-63
2023/01/18 13:48:53;;;;;;;;;;;;;;;;;;5036600;28;19998;-63
2023/01/18 13:51:18;;;;;;;;;;;;;;;;;;5046200;28;19970;-63
2023/01/18 13:53:43;;;;;;;;;;;;;;;;;;5029178;28;19930;-62
2023/01/18 13:56:09;;;;;;;;;;;;;;;;;;5014702;28;20256;-64
2023/01/18 13:58:37;;;;;;;;;;;;;;;;;;5030981;28;19921;-64
2023/01/18 14:01:05;;;;;;;;;;;;;;;;;;5015695;28;19920;-64
2023/01/18 14:03:31;;;;;;;;;;;;;;;;;;5031622;28;19921;-64
2023/01/18 14:05:57;;;;;;;;;;;;;;;;;;5031879;28;19966;-63
2023/01/18 14:08:26;;;;;;;;;;;;;;;;;;5035423;28;19974;-64
2023/01/18 14:10:54;;;;;;;;;;;;;;;;;;5021461;28;19952;-64
2023/01/18 14:13:22;;;;;;;;;;;;;;;;;;5046602;28;19950;-64
2023/01/18 14:15:48;;;;;;;;;;;;;;;;;;5034281;28;19948;-64
2023/01/18 14:18:15;;;;;;;;;;;;;;;;;;5031122;28;19948;-63
2023/01/18 14:20:43;;;;;;;;;;;;;;;;;;5046717;28;20422;-64
2023/01/18 14:23:09;;;;;;;;;;;;;;;;;;5035545;28;20532;-63
2023/01/18 14:25:34;;;;;;;;;;;;;;;;;;5032901;28;19936;-65
2023/01/18 14:28:00;;;;;;;;;;;;;;;;;;5038906;28;20014;-63
2023/01/18 14:30:26;;;;;;;;;;;;;;;;;;5032021;28;20395;-65
2023/01/18 14:32:53;;;;;;;;;;;;;;;;;;5031496;28;20403;-64
2023/01/18 14:35:21;;;;;;;;;;;;;;;;;;5039137;28;19946;-65
2023/01/18 14:37:49;;;;;;;;;;;;;;;;;;5047920;28;20771;-66
2023/01/18 14:40:15;;;;;;;;;;;;;;;;;;5033593;28;19920;-64
2023/01/18 14:42:40;;;;;;;;;;;;;;;;;;5029527;28;21435;-64
2023/01/18 14:45:05;;;;;;;;;;;;;;;;;;5028796;28;19925;-65
2023/01/18 14:47:31;;;;;;;;;;;;;;;;;;5047502;28;19917;-65
2023/01/18 14:49:56;;;;;;;;;;;;;;;;;;5033433;28;20656;-65
2023/01/18 14:52:22;;;;;;;;;;;;;;;;;;5035331;28;19917;-65
2023/01/18 14:54:47;;;;;;;;;;;;;;;;;;5033483;28;19924;-66
2023/01/18 14:57:12;;;;;;;;;;;;;;;;;;5019417;28;19943;-65
2023/01/18 14:59:38;;;;;;;;;;;;;;;;;;5018368;28;19928;-66
2023/01/18 15:02:04;;;;;;;;;;;;;;;;;;5031121;28;19952;-63
2023/01/18 15:04:29;;;;;;;;;;;;;;;;;;5036187;28;20314;-65
2023/01/18 15:06:57;;;;;;;;;;;;;;;;;;5047406;28;19973;-63
2023/01/18 15:09:22;;;;;;;;;;;;;;;;;;5032117;28;19939;-64
2023/01/18 15:11:48;;;;;;;;;;;;;;;;;;5032661;28;19979;-64
2023/01/18 15:14:16;;;;;;;;;;;;;;;;;;5032610;28;20593;-64
2023/01/18 15:16:42;;;;;;;;;;;;;;;;;;5026884;28;19936;-64
2023/01/18 15:19:09;;;;;;;;;;;;;;;;;;5026481;28;21678;-64
2023/01/18 15:21:37;;;;;;;;;;;;;;;;;;5032131;28;19998;-64
2023/01/18 15:24:02;;;;;;;;;;;;;;;;;;5034381;28;19932;-65
2023/01/18 15:26:28;;;;;;;;;;;;;;;;;;5044532;28;19975;-63
2023/01/18 15:28:56;;;;;;;;;;;;;;;;;;5012813;28;19917;-64
2023/01/18 15:31:23;;;;;;;;;;;;;;;;;;5026692;28;19959;-63
2023/01/18 15:33:49;;;;;;;;;;;;;;;;;;5031386;28;19925;-63
2023/01/18 15:36:17;;;;;;;;;;;;;;;;;;5029333;28;20167;-63
2023/01/18 15:38:43;;;;;;;;;;;;;;;;;;5044045;28;19956;-63
2023/01/18 15:41:09;;;;;;;;;;;;;;;;;;5033075;28;21021;-64
2023/01/18 15:43:34;;;;;;;;;;;;;;;;;;5029482;28;19927;-63
2023/01/18 15:46:03;;;;;;;;;;;;;;;;;;5033073;28;19927;-62
2023/01/18 15:48:28;;;;;;;;;;;;;;;;;;5026721;28;20401;-63
2023/01/18 15:50:53;;;;;;;;;;;;;;;;;;5030427;28;19920;-62
2023/01/18 15:53:22;;;;;;;;;;;;;;;;;;5029542;28;19927;-62
2023/01/18 15:55:47;;;;;;;;;;;;;;;;;;5033666;28;19921;-61
2023/01/18 15:58:13;;;;;;;;;;;;;;;;;;5019680;28;20606;-62
2023/01/18 16:00:41;;;;;;;;;;;;;;;;;;5031425;28;19925;-63
2023/01/18 16:03:06;;;;;;;;;;;;;;;;;;5012314;28;20740;-61
2023/01/18 16:05:32;;;;;;;;;;;;;;;;;;5030031;28;19997;-61
2023/01/18 16:07:57;;;;;;;;;;;;;;;;;;5016820;28;20461;-61
2023/01/18 16:10:30;;;;;;;;;;;;;;;;;;5036625;28;19939;-62
2023/01/18 16:12:59;;;;;;;;;;;;;;;;;;5028359;28;20681;-61
2023/01/18 16:15:24;;;;;;;;;;;;;;;;;;5029509;28;19931;-62
2023/01/18 16:17:49;;;;;;;;;;;;;;;;;;5035482;28;19924;-61
2023/01/18 16:20:15;;;;;;;;;;;;;;;;;;5021101;28;20164;-62
2023/01/18 16:22:41;;;;;;;;;;;;;;;;;;5033084;28;19923;-60
2023/01/18 16:25:07;;;;;;;;;;;;;;;;;;5029586;28;19996;-62
2023/01/18 16:27:32;;;;;;;;;;;;;;;;;;5036903;28;19928;-62
2023/01/18 16:29:58;;;;;;;;;;;;;;;;;;5029454;28;19932;-63
2023/01/18 16:32:23;;;;;;;;;;;;;;;;;;5031248;28;19932;-63
2023/01/18 16:34:49;;;;;;;;;;;;;;;;;;5033426;28;19923;-65
2023/01/18 16:37:16;;;;;;;;;;;;;;;;;;5030606;28;21465;-66
2023/01/18 16:39:41;;;;;;;;;;;;;;;;;;5033784;28;19917;-67
2023/01/18 16:42:08;;;;;;;;;;;;;;;;;;5031100;28;20776;-67
2023/01/18 16:44:35;;;;;;;;;;;;;;;;;;5029336;28;20061;-67
2023/01/18 16:47:01;;;;;;;;;;;;;;;;;;5032369;28;19928;-67
2023/01/18 16:49:27;;;;;;;;;;;;;;;;;;5036316;28;20379;-66
2023/01/18 16:51:52;;;;;;;;;;;;;;;;;;5029499;28;19920;-66
2023/01/18 16:54:17;;;;;;;;;;;;;;;;;;5043969;28;20012;-68
2023/01/18 16:56:46;;;;;;;;;;;;;;;;;;5044047;28;19920;-67
2023/01/18 16:59:13;;;;;;;;;;;;;;;;;;5028313;28;19940;-65
2023/01/18 17:01:39;;;;;;;;;;;;;;;;;;5016479;28;19922;-64
2023/01/18 17:04:05;;;;;;;;;;;;;;;;;;5030474;28;19920;-63
2023/01/18 17:06:32;;;;;;;;;;;;;;;;;;5018500;28;19920;-65
2023/01/18 17:08:57;;;;;;;;;;;;;;;;;;5037682;28;19916;-64
2023/01/18 17:11:22;;;;;;;;;;;;;;;;;;5046211;28;19921;-65
2023/01/18 17:13:50;;;;;;;;;;;;;;;;;;5038467;28;20495;-65
2023/01/18 17:16:16;;;;;;;;;;;;;;;;;;5033709;28;19958;-63
2023/01/18 17:18:41;;;;;;;;;;;;;;;;;;5017261;28;19924;-67
2023/01/18 17:21:07;;;;;;;;;;;;;;;;;;5019170;28;20289;-65